sensor_id;sensor_type;location;lat;lon;timestamp;P1;durP1;ratioP1;P2;durP2;ratioP2
8327;SDS011;4201;48.754;8.864;2022-10-31T00:00:03;12.50;;;7.00;;
8327;SDS011;4201;48.754;8.864;2022-10-31T00:02:29;15.20;;;7.53;;
8327;SDS011;4201;48.754;8.864;2022-10-31T00:04:55;10.10;;;6.63;;
8327;SDS011;4201;48.754;8.864;2022-10-31T00:07:23;12.87;;;7.43;;
8327;SDS011;4201;48.754;8.864;2022-10-31T00:09:49;9.37;;;5.93;;
8327;SDS011;4201;48.754;8.864;2022-10-31T00:12:15;10.73;;;7.50;;
8327;SDS011;4201;48.754;8.864;2022-10-31T00:14:42;21.07;;;9.23;;
8327;SDS011;4201;48.754;8.864;2022-10-31T00:17:08;13.37;;;8.17;;
8327;SDS011;4201;48.754;8.864;2022-10-31T00:19:34;11.83;;;7.90;;
8327;SDS011;4201;48.754;8.864;2022-10-31T00:22:00;11.67;;;7.57;;
8327;SDS011;4201;48.754;8.864;2022-10-31T00:24:28;11.83;;;8.30;;
8327;SDS011;4201;48.754;8.864;2022-10-31T00:26:54;10.37;;;7.63;;
8327;SDS011;4201;48.754;8.864;2022-10-31T00:29:20;14.30;;;7.80;;
8327;SDS011;4201;48.754;8.864;2022-10-31T00:31:47;15.23;;;7.50;;
8327;SDS011;4201;48.754;8.864;2022-10-31T00:34:13;14.03;;;7.97;;
8327;SDS011;4201;48.754;8.864;2022-10-31T00:36:39;18.53;;;6.73;;
8327;SDS011;4201;48.754;8.864;2022-10-31T00:39:05;10.13;;;6.63;;
8327;SDS011;4201;48.754;8.864;2022-10-31T00:41:33;11.37;;;7.37;;
8327;SDS011;4201;48.754;8.864;2022-10-31T00:43:59;12.60;;;6.67;;
8327;SDS011;4201;48.754;8.864;2022-10-31T00:46:26;14.07;;;8.70;;
8327;SDS011;4201;48.754;8.864;2022-10-31T00:48:52;12.20;;;8.40;;
8327;SDS011;4201;48.754;8.864;2022-10-31T00:51:18;12.30;;;8.50;;
8327;SDS011;4201;48.754;8.864;2022-10-31T00:53:45;12.30;;;7.30;;
8327;SDS011;4201;48.754;8.864;2022-10-31T00:56:11;13.17;;;9.13;;
8327;SDS011;4201;48.754;8.864;2022-10-31T00:58:38;14.27;;;8.33;;
8327;SDS011;4201;48.754;8.864;2022-10-31T01:01:05;13.07;;;9.03;;
8327;SDS011;4201;48.754;8.864;2022-10-31T01:03:31;14.33;;;8.43;;
8327;SDS011;4201;48.754;8.864;2022-10-31T01:05:58;13.60;;;8.40;;
8327;SDS011;4201;48.754;8.864;2022-10-31T01:08:25;14.40;;;7.80;;
8327;SDS011;4201;48.754;8.864;2022-10-31T01:10:58;18.57;;;10.40;;
8327;SDS011;4201;48.754;8.864;2022-10-31T01:13:24;20.13;;;9.80;;
8327;SDS011;4201;48.754;8.864;2022-10-31T01:15:54;14.50;;;9.20;;
8327;SDS011;4201;48.754;8.864;2022-10-31T01:18:20;16.83;;;8.90;;
8327;SDS011;4201;48.754;8.864;2022-10-31T01:20:47;14.73;;;9.50;;
8327;SDS011;4201;48.754;8.864;2022-10-31T01:23:13;14.37;;;10.40;;
8327;SDS011;4201;48.754;8.864;2022-10-31T01:25:39;11.77;;;8.00;;
8327;SDS011;4201;48.754;8.864;2022-10-31T01:28:10;12.37;;;8.70;;
8327;SDS011;4201;48.754;8.864;2022-10-31T01:31:21;11.20;;;7.70;;
8327;SDS011;4201;48.754;8.864;2022-10-31T01:34:03;13.10;;;8.90;;
8327;SDS011;4201;48.754;8.864;2022-10-31T01:37:06;13.70;;;8.40;;
8327;SDS011;4201;48.754;8.864;2022-10-31T01:39:38;12.57;;;8.80;;
8327;SDS011;4201;48.754;8.864;2022-10-31T01:42:22;15.23;;;8.60;;
8327;SDS011;4201;48.754;8.864;2022-10-31T01:45:03;11.97;;;7.93;;
8327;SDS011;4201;48.754;8.864;2022-10-31T01:48:38;11.40;;;7.63;;
8327;SDS011;4201;48.754;8.864;2022-10-31T01:51:30;11.70;;;6.60;;
8327;SDS011;4201;48.754;8.864;2022-10-31T01:53:59;14.27;;;8.83;;
8327;SDS011;4201;48.754;8.864;2022-10-31T01:56:26;11.63;;;7.67;;
8327;SDS011;4201;48.754;8.864;2022-10-31T01:58:53;17.53;;;7.80;;
8327;SDS011;4201;48.754;8.864;2022-10-31T02:01:20;13.87;;;8.30;;
8327;SDS011;4201;48.754;8.864;2022-10-31T02:03:50;8.80;;;7.30;;
8327;SDS011;4201;48.754;8.864;2022-10-31T02:06:19;11.53;;;7.00;;
8327;SDS011;4201;48.754;8.864;2022-10-31T02:08:47;16.27;;;7.60;;
8327;SDS011;4201;48.754;8.864;2022-10-31T02:11:14;9.93;;;7.17;;
8327;SDS011;4201;48.754;8.864;2022-10-31T02:13:41;11.50;;;7.53;;
8327;SDS011;4201;48.754;8.864;2022-10-31T02:16:08;11.37;;;7.80;;
8327;SDS011;4201;48.754;8.864;2022-10-31T02:18:35;19.33;;;8.37;;
8327;SDS011;4201;48.754;8.864;2022-10-31T02:21:04;12.80;;;8.13;;
8327;SDS011;4201;48.754;8.864;2022-10-31T02:23:42;12.73;;;7.53;;
8327;SDS011;4201;48.754;8.864;2022-10-31T02:26:20;12.13;;;7.70;;
8327;SDS011;4201;48.754;8.864;2022-10-31T02:28:54;9.77;;;6.50;;
8327;SDS011;4201;48.754;8.864;2022-10-31T02:31:28;13.27;;;6.90;;
8327;SDS011;4201;48.754;8.864;2022-10-31T02:33:59;11.43;;;6.30;;
8327;SDS011;4201;48.754;8.864;2022-10-31T02:36:27;13.43;;;7.60;;
8327;SDS011;4201;48.754;8.864;2022-10-31T02:38:56;9.33;;;7.23;;
8327;SDS011;4201;48.754;8.864;2022-10-31T02:41:28;15.00;;;6.77;;
8327;SDS011;4201;48.754;8.864;2022-10-31T02:44:00;12.43;;;7.50;;
8327;SDS011;4201;48.754;8.864;2022-10-31T02:46:31;10.97;;;7.33;;
8327;SDS011;4201;48.754;8.864;2022-10-31T02:49:00;14.73;;;6.17;;
8327;SDS011;4201;48.754;8.864;2022-10-31T02:51:29;12.00;;;6.60;;
8327;SDS011;4201;48.754;8.864;2022-10-31T02:53:56;8.20;;;5.30;;
8327;SDS011;4201;48.754;8.864;2022-10-31T02:56:22;11.23;;;5.57;;
8327;SDS011;4201;48.754;8.864;2022-10-31T02:58:49;8.67;;;5.60;;
8327;SDS011;4201;48.754;8.864;2022-10-31T03:04:06;10.40;;;6.23;;
8327;SDS011;4201;48.754;8.864;2022-10-31T03:06:39;13.47;;;6.40;;
8327;SDS011;4201;48.754;8.864;2022-10-31T03:09:09;12.90;;;6.60;;
8327;SDS011;4201;48.754;8.864;2022-10-31T03:11:40;13.40;;;6.47;;
8327;SDS011;4201;48.754;8.864;2022-10-31T03:14:11;14.20;;;6.57;;
8327;SDS011;4201;48.754;8.864;2022-10-31T03:16:40;10.67;;;6.47;;
8327;SDS011;4201;48.754;8.864;2022-10-31T03:19:12;11.03;;;5.80;;
8327;SDS011;4201;48.754;8.864;2022-10-31T03:21:41;9.10;;;5.80;;
8327;SDS011;4201;48.754;8.864;2022-10-31T03:24:09;14.90;;;6.50;;
8327;SDS011;4201;48.754;8.864;2022-10-31T03:26:36;12.00;;;6.13;;
8327;SDS011;4201;48.754;8.864;2022-10-31T03:29:04;11.70;;;6.90;;
8327;SDS011;4201;48.754;8.864;2022-10-31T03:31:33;10.17;;;6.40;;
8327;SDS011;4201;48.754;8.864;2022-10-31T03:34:01;9.43;;;5.53;;
8327;SDS011;4201;48.754;8.864;2022-10-31T03:36:30;9.10;;;6.10;;
8327;SDS011;4201;48.754;8.864;2022-10-31T03:38:59;9.60;;;6.10;;
8327;SDS011;4201;48.754;8.864;2022-10-31T03:41:27;10.60;;;6.90;;
8327;SDS011;4201;48.754;8.864;2022-10-31T03:43:55;11.57;;;6.30;;
8327;SDS011;4201;48.754;8.864;2022-10-31T03:46:23;8.97;;;5.53;;
8327;SDS011;4201;48.754;8.864;2022-10-31T03:48:49;11.17;;;7.13;;
8327;SDS011;4201;48.754;8.864;2022-10-31T03:51:17;18.47;;;7.60;;
8327;SDS011;4201;48.754;8.864;2022-10-31T03:53:47;8.90;;;6.87;;
8327;SDS011;4201;48.754;8.864;2022-10-31T03:56:17;12.70;;;6.97;;
8327;SDS011;4201;48.754;8.864;2022-10-31T03:58:47;9.80;;;6.43;;
8327;SDS011;4201;48.754;8.864;2022-10-31T04:01:15;7.30;;;5.77;;
8327;SDS011;4201;48.754;8.864;2022-10-31T04:03:42;12.10;;;6.63;;
8327;SDS011;4201;48.754;8.864;2022-10-31T04:06:10;7.77;;;6.40;;
8327;SDS011;4201;48.754;8.864;2022-10-31T04:08:39;12.30;;;5.67;;
8327;SDS011;4201;48.754;8.864;2022-10-31T04:11:07;9.70;;;5.90;;
8327;SDS011;4201;48.754;8.864;2022-10-31T04:13:35;8.47;;;5.63;;
8327;SDS011;4201;48.754;8.864;2022-10-31T04:16:03;9.63;;;6.40;;
8327;SDS011;4201;48.754;8.864;2022-10-31T04:18:30;11.70;;;5.97;;
8327;SDS011;4201;48.754;8.864;2022-10-31T04:21:00;10.00;;;5.90;;
8327;SDS011;4201;48.754;8.864;2022-10-31T04:23:26;12.33;;;6.93;;
8327;SDS011;4201;48.754;8.864;2022-10-31T04:25:53;9.63;;;6.63;;
8327;SDS011;4201;48.754;8.864;2022-10-31T04:28:21;14.40;;;6.70;;
8327;SDS011;4201;48.754;8.864;2022-10-31T04:30:48;11.13;;;6.87;;
8327;SDS011;4201;48.754;8.864;2022-10-31T04:33:15;8.60;;;6.40;;
8327;SDS011;4201;48.754;8.864;2022-10-31T04:35:47;10.70;;;6.93;;
8327;SDS011;4201;48.754;8.864;2022-10-31T04:38:27;8.40;;;5.83;;
8327;SDS011;4201;48.754;8.864;2022-10-31T04:41:04;12.70;;;6.80;;
8327;SDS011;4201;48.754;8.864;2022-10-31T04:43:31;10.70;;;5.90;;
8327;SDS011;4201;48.754;8.864;2022-10-31T04:45:58;8.43;;;6.10;;
8327;SDS011;4201;48.754;8.864;2022-10-31T04:48:24;11.43;;;6.37;;
8327;SDS011;4201;48.754;8.864;2022-10-31T04:50:50;8.70;;;5.70;;
8327;SDS011;4201;48.754;8.864;2022-10-31T04:53:16;14.33;;;5.87;;
8327;SDS011;4201;48.754;8.864;2022-10-31T04:55:43;9.00;;;6.30;;
8327;SDS011;4201;48.754;8.864;2022-10-31T04:58:09;11.20;;;6.60;;
8327;SDS011;4201;48.754;8.864;2022-10-31T05:00:37;17.40;;;6.40;;
8327;SDS011;4201;48.754;8.864;2022-10-31T05:03:03;10.43;;;5.83;;
8327;SDS011;4201;48.754;8.864;2022-10-31T05:05:30;10.20;;;6.17;;
8327;SDS011;4201;48.754;8.864;2022-10-31T05:07:56;9.20;;;6.17;;
8327;SDS011;4201;48.754;8.864;2022-10-31T05:10:23;9.90;;;6.50;;
8327;SDS011;4201;48.754;8.864;2022-10-31T05:12:51;7.03;;;5.67;;
8327;SDS011;4201;48.754;8.864;2022-10-31T05:15:17;8.10;;;5.60;;
8327;SDS011;4201;48.754;8.864;2022-10-31T05:17:45;13.77;;;7.10;;
8327;SDS011;4201;48.754;8.864;2022-10-31T05:20:12;10.60;;;5.60;;
8327;SDS011;4201;48.754;8.864;2022-10-31T05:22:41;12.13;;;6.17;;
8327;SDS011;4201;48.754;8.864;2022-10-31T05:25:08;11.70;;;5.90;;
8327;SDS011;4201;48.754;8.864;2022-10-31T05:27:34;9.00;;;6.40;;
8327;SDS011;4201;48.754;8.864;2022-10-31T05:30:00;9.33;;;6.40;;
8327;SDS011;4201;48.754;8.864;2022-10-31T05:32:26;13.07;;;6.80;;
8327;SDS011;4201;48.754;8.864;2022-10-31T05:34:56;9.80;;;6.53;;
8327;SDS011;4201;48.754;8.864;2022-10-31T05:37:22;18.20;;;6.37;;
8327;SDS011;4201;48.754;8.864;2022-10-31T05:39:48;10.80;;;6.40;;
8327;SDS011;4201;48.754;8.864;2022-10-31T05:42:14;12.30;;;7.43;;
8327;SDS011;4201;48.754;8.864;2022-10-31T05:44:41;16.50;;;6.13;;
8327;SDS011;4201;48.754;8.864;2022-10-31T05:47:07;9.30;;;6.03;;
8327;SDS011;4201;48.754;8.864;2022-10-31T05:49:33;15.77;;;6.07;;
8327;SDS011;4201;48.754;8.864;2022-10-31T05:52:01;10.60;;;5.87;;
8327;SDS011;4201;48.754;8.864;2022-10-31T05:54:27;10.30;;;6.77;;
8327;SDS011;4201;48.754;8.864;2022-10-31T05:56:53;13.77;;;5.47;;
8327;SDS011;4201;48.754;8.864;2022-10-31T05:59:19;10.27;;;6.10;;
8327;SDS011;4201;48.754;8.864;2022-10-31T06:01:46;16.60;;;6.77;;
8327;SDS011;4201;48.754;8.864;2022-10-31T06:04:12;9.53;;;6.13;;
8327;SDS011;4201;48.754;8.864;2022-10-31T06:06:38;10.90;;;6.37;;
8327;SDS011;4201;48.754;8.864;2022-10-31T06:09:06;11.90;;;5.87;;
8327;SDS011;4201;48.754;8.864;2022-10-31T06:11:32;9.90;;;6.17;;
8327;SDS011;4201;48.754;8.864;2022-10-31T06:13:58;12.83;;;6.20;;
8327;SDS011;4201;48.754;8.864;2022-10-31T06:16:25;13.17;;;7.07;;
8327;SDS011;4201;48.754;8.864;2022-10-31T06:18:51;10.13;;;6.23;;
8327;SDS011;4201;48.754;8.864;2022-10-31T06:21:17;10.90;;;6.10;;
8327;SDS011;4201;48.754;8.864;2022-10-31T06:23:44;8.77;;;5.60;;
8327;SDS011;4201;48.754;8.864;2022-10-31T06:26:11;10.37;;;6.63;;
8327;SDS011;4201;48.754;8.864;2022-10-31T06:28:37;11.47;;;6.40;;
8327;SDS011;4201;48.754;8.864;2022-10-31T06:31:04;10.07;;;5.27;;
8327;SDS011;4201;48.754;8.864;2022-10-31T06:33:30;14.00;;;5.90;;
8327;SDS011;4201;48.754;8.864;2022-10-31T06:35:57;10.60;;;6.50;;
8327;SDS011;4201;48.754;8.864;2022-10-31T06:38:23;9.77;;;6.03;;
8327;SDS011;4201;48.754;8.864;2022-10-31T06:40:49;9.43;;;5.87;;
8327;SDS011;4201;48.754;8.864;2022-10-31T06:43:17;10.07;;;5.93;;
8327;SDS011;4201;48.754;8.864;2022-10-31T06:45:43;7.23;;;4.70;;
8327;SDS011;4201;48.754;8.864;2022-10-31T06:48:09;12.80;;;6.13;;
8327;SDS011;4201;48.754;8.864;2022-10-31T06:50:35;12.27;;;7.03;;
8327;SDS011;4201;48.754;8.864;2022-10-31T06:53:02;11.37;;;5.90;;
8327;SDS011;4201;48.754;8.864;2022-10-31T06:55:28;13.77;;;6.40;;
8327;SDS011;4201;48.754;8.864;2022-10-31T06:57:55;10.83;;;6.13;;
8327;SDS011;4201;48.754;8.864;2022-10-31T07:00:23;12.37;;;5.97;;
8327;SDS011;4201;48.754;8.864;2022-10-31T07:02:53;9.70;;;5.93;;
8327;SDS011;4201;48.754;8.864;2022-10-31T07:05:19;8.70;;;6.03;;
8327;SDS011;4201;48.754;8.864;2022-10-31T07:07:46;9.87;;;5.60;;
8327;SDS011;4201;48.754;8.864;2022-10-31T07:10:12;7.73;;;6.17;;
8327;SDS011;4201;48.754;8.864;2022-10-31T07:12:38;11.60;;;6.80;;
8327;SDS011;4201;48.754;8.864;2022-10-31T07:15:05;15.10;;;8.63;;
8327;SDS011;4201;48.754;8.864;2022-10-31T07:17:33;9.33;;;5.87;;
8327;SDS011;4201;48.754;8.864;2022-10-31T07:19:59;8.77;;;5.40;;
8327;SDS011;4201;48.754;8.864;2022-10-31T07:22:31;11.80;;;5.60;;
8327;SDS011;4201;48.754;8.864;2022-10-31T07:24:57;10.10;;;6.20;;
8327;SDS011;4201;48.754;8.864;2022-10-31T07:27:24;9.37;;;6.20;;
8327;SDS011;4201;48.754;8.864;2022-10-31T07:29:50;8.90;;;5.03;;
8327;SDS011;4201;48.754;8.864;2022-10-31T07:32:16;9.47;;;5.03;;
8327;SDS011;4201;48.754;8.864;2022-10-31T07:34:44;10.90;;;6.50;;
8327;SDS011;4201;48.754;8.864;2022-10-31T07:37:10;12.83;;;7.73;;
8327;SDS011;4201;48.754;8.864;2022-10-31T07:39:36;14.57;;;6.87;;
8327;SDS011;4201;48.754;8.864;2022-10-31T07:42:03;13.00;;;6.80;;
8327;SDS011;4201;48.754;8.864;2022-10-31T07:44:29;11.10;;;6.63;;
8327;SDS011;4201;48.754;8.864;2022-10-31T07:46:55;14.70;;;7.50;;
8327;SDS011;4201;48.754;8.864;2022-10-31T07:49:22;13.67;;;7.40;;
8327;SDS011;4201;48.754;8.864;2022-10-31T07:51:51;13.80;;;7.60;;
8327;SDS011;4201;48.754;8.864;2022-10-31T07:54:18;14.40;;;7.47;;
8327;SDS011;4201;48.754;8.864;2022-10-31T07:56:44;11.00;;;7.00;;
8327;SDS011;4201;48.754;8.864;2022-10-31T07:59:12;13.37;;;8.13;;
8327;SDS011;4201;48.754;8.864;2022-10-31T08:01:38;13.93;;;7.00;;
8327;SDS011;4201;48.754;8.864;2022-10-31T08:04:05;14.63;;;7.87;;
8327;SDS011;4201;48.754;8.864;2022-10-31T08:06:31;11.23;;;7.73;;
8327;SDS011;4201;48.754;8.864;2022-10-31T08:09:00;18.60;;;8.23;;
8327;SDS011;4201;48.754;8.864;2022-10-31T08:11:26;12.37;;;7.63;;
8327;SDS011;4201;48.754;8.864;2022-10-31T08:13:53;20.87;;;7.50;;
8327;SDS011;4201;48.754;8.864;2022-10-31T08:16:19;10.30;;;7.40;;
8327;SDS011;4201;48.754;8.864;2022-10-31T08:18:46;10.93;;;7.03;;
8327;SDS011;4201;48.754;8.864;2022-10-31T08:21:13;12.70;;;8.47;;
8327;SDS011;4201;48.754;8.864;2022-10-31T08:23:39;14.47;;;8.03;;
8327;SDS011;4201;48.754;8.864;2022-10-31T08:26:06;12.60;;;7.67;;
8327;SDS011;4201;48.754;8.864;2022-10-31T08:28:33;11.60;;;7.17;;
8327;SDS011;4201;48.754;8.864;2022-10-31T08:30:59;14.17;;;7.23;;
8327;SDS011;4201;48.754;8.864;2022-10-31T08:33:25;14.17;;;6.63;;
8327;SDS011;4201;48.754;8.864;2022-10-31T08:35:52;9.23;;;5.73;;
8327;SDS011;4201;48.754;8.864;2022-10-31T08:38:18;11.10;;;6.97;;
8327;SDS011;4201;48.754;8.864;2022-10-31T08:40:46;13.97;;;7.83;;
8327;SDS011;4201;48.754;8.864;2022-10-31T08:43:15;17.47;;;7.33;;
8327;SDS011;4201;48.754;8.864;2022-10-31T08:45:42;15.00;;;6.87;;
8327;SDS011;4201;48.754;8.864;2022-10-31T08:48:09;13.40;;;7.10;;
8327;SDS011;4201;48.754;8.864;2022-10-31T08:50:36;21.27;;;7.30;;
8327;SDS011;4201;48.754;8.864;2022-10-31T08:53:03;15.80;;;6.83;;
8327;SDS011;4201;48.754;8.864;2022-10-31T08:55:29;14.63;;;8.57;;
8327;SDS011;4201;48.754;8.864;2022-10-31T08:57:56;20.00;;;8.07;;
8327;SDS011;4201;48.754;8.864;2022-10-31T09:00:24;13.63;;;7.90;;
8327;SDS011;4201;48.754;8.864;2022-10-31T09:02:54;11.27;;;7.27;;
8327;SDS011;4201;48.754;8.864;2022-10-31T09:05:20;10.43;;;7.03;;
8327;SDS011;4201;48.754;8.864;2022-10-31T09:07:47;13.70;;;7.90;;
8327;SDS011;4201;48.754;8.864;2022-10-31T09:10:13;12.50;;;8.17;;
8327;SDS011;4201;48.754;8.864;2022-10-31T09:12:39;14.10;;;7.60;;
8327;SDS011;4201;48.754;8.864;2022-10-31T09:15:06;11.73;;;6.30;;
8327;SDS011;4201;48.754;8.864;2022-10-31T09:17:34;13.47;;;6.90;;
8327;SDS011;4201;48.754;8.864;2022-10-31T09:20:00;10.50;;;7.40;;
8327;SDS011;4201;48.754;8.864;2022-10-31T09:22:26;12.63;;;5.53;;
8327;SDS011;4201;48.754;8.864;2022-10-31T09:24:53;9.00;;;6.23;;
8327;SDS011;4201;48.754;8.864;2022-10-31T09:27:19;8.50;;;5.93;;
8327;SDS011;4201;48.754;8.864;2022-10-31T09:29:45;14.43;;;5.83;;
8327;SDS011;4201;48.754;8.864;2022-10-31T09:32:11;9.97;;;5.97;;
8327;SDS011;4201;48.754;8.864;2022-10-31T09:34:39;15.13;;;6.30;;
8327;SDS011;4201;48.754;8.864;2022-10-31T09:37:05;12.03;;;5.87;;
8327;SDS011;4201;48.754;8.864;2022-10-31T09:39:32;12.40;;;5.50;;
8327;SDS011;4201;48.754;8.864;2022-10-31T09:42:04;14.10;;;6.40;;
8327;SDS011;4201;48.754;8.864;2022-10-31T09:44:37;13.90;;;6.03;;
8327;SDS011;4201;48.754;8.864;2022-10-31T09:47:08;11.30;;;6.60;;
8327;SDS011;4201;48.754;8.864;2022-10-31T09:49:49;9.40;;;5.60;;
8327;SDS011;4201;48.754;8.864;2022-10-31T09:52:22;11.73;;;5.43;;
8327;SDS011;4201;48.754;8.864;2022-10-31T09:54:51;14.13;;;5.97;;
8327;SDS011;4201;48.754;8.864;2022-10-31T09:57:19;9.43;;;5.70;;
8327;SDS011;4201;48.754;8.864;2022-10-31T09:59:48;8.00;;;5.70;;
8327;SDS011;4201;48.754;8.864;2022-10-31T10:02:17;13.50;;;6.40;;
8327;SDS011;4201;48.754;8.864;2022-10-31T10:04:47;16.83;;;6.77;;
8327;SDS011;4201;48.754;8.864;2022-10-31T10:07:16;14.33;;;5.77;;
8327;SDS011;4201;48.754;8.864;2022-10-31T10:09:46;8.50;;;5.70;;
8327;SDS011;4201;48.754;8.864;2022-10-31T10:12:15;14.77;;;6.73;;
8327;SDS011;4201;48.754;8.864;2022-10-31T10:14:47;13.73;;;6.07;;
8327;SDS011;4201;48.754;8.864;2022-10-31T10:17:19;13.47;;;6.67;;
8327;SDS011;4201;48.754;8.864;2022-10-31T10:22:31;11.60;;;6.37;;
8327;SDS011;4201;48.754;8.864;2022-10-31T10:25:04;16.00;;;7.20;;
8327;SDS011;4201;48.754;8.864;2022-10-31T10:27:39;12.47;;;6.63;;
8327;SDS011;4201;48.754;8.864;2022-10-31T10:30:11;10.27;;;6.13;;
8327;SDS011;4201;48.754;8.864;2022-10-31T10:32:40;7.80;;;5.60;;
8327;SDS011;4201;48.754;8.864;2022-10-31T10:35:10;10.93;;;6.57;;
8327;SDS011;4201;48.754;8.864;2022-10-31T10:37:39;16.17;;;6.33;;
8327;SDS011;4201;48.754;8.864;2022-10-31T10:40:11;18.27;;;6.83;;
8327;SDS011;4201;48.754;8.864;2022-10-31T10:42:40;14.00;;;6.80;;
8327;SDS011;4201;48.754;8.864;2022-10-31T10:45:24;19.17;;;7.40;;
8327;SDS011;4201;48.754;8.864;2022-10-31T10:48:12;13.50;;;7.50;;
8327;SDS011;4201;48.754;8.864;2022-10-31T10:50:41;13.00;;;7.37;;
8327;SDS011;4201;48.754;8.864;2022-10-31T10:53:13;15.10;;;7.10;;
8327;SDS011;4201;48.754;8.864;2022-10-31T10:55:48;13.30;;;7.23;;
8327;SDS011;4201;48.754;8.864;2022-10-31T10:58:17;16.70;;;6.77;;
8327;SDS011;4201;48.754;8.864;2022-10-31T11:00:44;15.87;;;7.23;;
8327;SDS011;4201;48.754;8.864;2022-10-31T11:03:11;14.17;;;6.10;;
8327;SDS011;4201;48.754;8.864;2022-10-31T11:05:39;11.67;;;6.53;;
8327;SDS011;4201;48.754;8.864;2022-10-31T11:08:07;15.90;;;6.47;;
8327;SDS011;4201;48.754;8.864;2022-10-31T11:10:33;14.77;;;5.23;;
8327;SDS011;4201;48.754;8.864;2022-10-31T11:13:03;10.57;;;6.37;;
8327;SDS011;4201;48.754;8.864;2022-10-31T11:15:31;19.43;;;7.27;;
8327;SDS011;4201;48.754;8.864;2022-10-31T11:17:57;13.40;;;6.73;;
8327;SDS011;4201;48.754;8.864;2022-10-31T11:20:25;14.17;;;6.70;;
8327;SDS011;4201;48.754;8.864;2022-10-31T11:23:00;11.70;;;6.00;;
8327;SDS011;4201;48.754;8.864;2022-10-31T11:25:26;13.77;;;6.43;;
8327;SDS011;4201;48.754;8.864;2022-10-31T11:27:58;20.00;;;6.93;;
8327;SDS011;4201;48.754;8.864;2022-10-31T11:30:26;15.90;;;5.73;;
8327;SDS011;4201;48.754;8.864;2022-10-31T11:32:52;20.20;;;6.87;;
8327;SDS011;4201;48.754;8.864;2022-10-31T11:35:19;10.97;;;6.60;;
8327;SDS011;4201;48.754;8.864;2022-10-31T11:37:46;16.50;;;6.80;;
8327;SDS011;4201;48.754;8.864;2022-10-31T11:40:16;15.87;;;7.37;;
8327;SDS011;4201;48.754;8.864;2022-10-31T11:42:43;16.10;;;6.67;;
8327;SDS011;4201;48.754;8.864;2022-10-31T11:45:13;19.83;;;7.13;;
8327;SDS011;4201;48.754;8.864;2022-10-31T11:47:42;15.10;;;7.77;;
8327;SDS011;4201;48.754;8.864;2022-10-31T11:50:10;18.27;;;6.50;;
8327;SDS011;4201;48.754;8.864;2022-10-31T11:52:38;9.80;;;6.07;;
8327;SDS011;4201;48.754;8.864;2022-10-31T11:55:14;13.93;;;7.30;;
8327;SDS011;4201;48.754;8.864;2022-10-31T11:57:42;13.73;;;7.23;;
8327;SDS011;4201;48.754;8.864;2022-10-31T12:00:19;14.53;;;7.50;;
8327;SDS011;4201;48.754;8.864;2022-10-31T12:02:47;14.60;;;7.53;;
8327;SDS011;4201;48.754;8.864;2022-10-31T12:05:17;22.27;;;6.97;;
8327;SDS011;4201;48.754;8.864;2022-10-31T12:07:44;12.00;;;6.43;;
8327;SDS011;4201;48.754;8.864;2022-10-31T12:10:11;13.43;;;7.67;;
8327;SDS011;4201;48.754;8.864;2022-10-31T12:12:42;17.63;;;8.20;;
8327;SDS011;4201;48.754;8.864;2022-10-31T15:48:44;17.90;;;8.60;;
8327;SDS011;4201;48.754;8.864;2022-10-31T15:51:12;18.20;;;8.20;;
8327;SDS011;4201;48.754;8.864;2022-10-31T15:53:41;12.70;;;7.70;;
8327;SDS011;4201;48.754;8.864;2022-10-31T15:56:09;16.80;;;7.73;;
8327;SDS011;4201;48.754;8.864;2022-10-31T15:58:39;15.60;;;7.40;;
8327;SDS011;4201;48.754;8.864;2022-10-31T16:01:18;13.87;;;7.37;;
8327;SDS011;4201;48.754;8.864;2022-10-31T16:03:54;16.70;;;7.87;;
8327;SDS011;4201;48.754;8.864;2022-10-31T16:06:22;45.37;;;19.30;;
8327;SDS011;4201;48.754;8.864;2022-10-31T16:08:49;62.03;;;31.03;;
8327;SDS011;4201;48.754;8.864;2022-10-31T16:11:20;33.60;;;17.20;;
8327;SDS011;4201;48.754;8.864;2022-10-31T16:13:55;19.40;;;9.53;;
8327;SDS011;4201;48.754;8.864;2022-10-31T16:16:23;17.53;;;10.67;;
8327;SDS011;4201;48.754;8.864;2022-10-31T16:18:51;17.03;;;8.90;;
8327;SDS011;4201;48.754;8.864;2022-10-31T16:21:23;17.50;;;10.13;;
8327;SDS011;4201;48.754;8.864;2022-10-31T16:23:51;16.10;;;7.77;;
8327;SDS011;4201;48.754;8.864;2022-10-31T16:26:19;15.40;;;11.20;;
8327;SDS011;4201;48.754;8.864;2022-10-31T16:28:50;17.30;;;10.53;;
8327;SDS011;4201;48.754;8.864;2022-10-31T16:31:24;16.70;;;10.40;;
8327;SDS011;4201;48.754;8.864;2022-10-31T16:34:00;16.87;;;9.70;;
8327;SDS011;4201;48.754;8.864;2022-10-31T16:36:30;25.00;;;10.70;;
8327;SDS011;4201;48.754;8.864;2022-10-31T16:38:57;14.40;;;9.67;;
8327;SDS011;4201;48.754;8.864;2022-10-31T16:41:24;15.13;;;9.10;;
8327;SDS011;4201;48.754;8.864;2022-10-31T16:43:50;15.40;;;9.50;;
8327;SDS011;4201;48.754;8.864;2022-10-31T16:46:18;23.63;;;10.80;;
8327;SDS011;4201;48.754;8.864;2022-10-31T16:48:47;16.20;;;10.90;;
8327;SDS011;4201;48.754;8.864;2022-10-31T16:51:14;15.23;;;10.47;;
8327;SDS011;4201;48.754;8.864;2022-10-31T16:53:40;18.57;;;10.53;;
8327;SDS011;4201;48.754;8.864;2022-10-31T16:56:11;15.43;;;10.10;;
8327;SDS011;4201;48.754;8.864;2022-10-31T16:58:40;19.23;;;10.07;;
8327;SDS011;4201;48.754;8.864;2022-10-31T17:01:06;20.53;;;10.10;;
8327;SDS011;4201;48.754;8.864;2022-10-31T17:03:32;17.33;;;9.23;;
8327;SDS011;4201;48.754;8.864;2022-10-31T17:05:59;15.33;;;8.43;;
8327;SDS011;4201;48.754;8.864;2022-10-31T17:08:26;24.97;;;8.73;;
8327;SDS011;4201;48.754;8.864;2022-10-31T17:10:53;22.40;;;9.30;;
8327;SDS011;4201;48.754;8.864;2022-10-31T17:13:20;21.53;;;10.00;;
8327;SDS011;4201;48.754;8.864;2022-10-31T17:15:48;19.60;;;11.40;;
8327;SDS011;4201;48.754;8.864;2022-10-31T17:18:15;20.17;;;11.00;;
8327;SDS011;4201;48.754;8.864;2022-10-31T17:20:42;23.73;;;11.00;;
8327;SDS011;4201;48.754;8.864;2022-10-31T17:23:09;19.27;;;11.80;;
8327;SDS011;4201;48.754;8.864;2022-10-31T17:25:37;18.40;;;10.60;;
8327;SDS011;4201;48.754;8.864;2022-10-31T17:28:03;21.90;;;11.73;;
8327;SDS011;4201;48.754;8.864;2022-10-31T17:30:30;21.13;;;11.13;;
8327;SDS011;4201;48.754;8.864;2022-10-31T17:32:56;26.17;;;18.90;;
8327;SDS011;4201;48.754;8.864;2022-10-31T17:35:23;26.07;;;20.93;;
8327;SDS011;4201;48.754;8.864;2022-10-31T17:37:49;27.60;;;20.13;;
8327;SDS011;4201;48.754;8.864;2022-10-31T17:40:16;22.10;;;16.17;;
8327;SDS011;4201;48.754;8.864;2022-10-31T17:42:48;22.67;;;10.23;;
8327;SDS011;4201;48.754;8.864;2022-10-31T17:45:15;17.47;;;10.67;;
8327;SDS011;4201;48.754;8.864;2022-10-31T17:47:41;15.43;;;9.80;;
8327;SDS011;4201;48.754;8.864;2022-10-31T17:50:07;16.27;;;12.07;;
8327;SDS011;4201;48.754;8.864;2022-10-31T17:52:34;24.13;;;11.97;;
8327;SDS011;4201;48.754;8.864;2022-10-31T17:55:00;15.80;;;9.93;;
8327;SDS011;4201;48.754;8.864;2022-10-31T17:57:28;16.07;;;9.80;;
8327;SDS011;4201;48.754;8.864;2022-10-31T17:59:58;17.30;;;9.60;;
8327;SDS011;4201;48.754;8.864;2022-10-31T18:02:25;25.20;;;9.90;;
8327;SDS011;4201;48.754;8.864;2022-10-31T18:04:51;16.20;;;9.03;;
8327;SDS011;4201;48.754;8.864;2022-10-31T18:07:17;18.70;;;11.40;;
8327;SDS011;4201;48.754;8.864;2022-10-31T18:09:45;15.17;;;10.23;;
8327;SDS011;4201;48.754;8.864;2022-10-31T18:12:11;21.03;;;10.50;;
8327;SDS011;4201;48.754;8.864;2022-10-31T18:14:38;19.33;;;11.07;;
8327;SDS011;4201;48.754;8.864;2022-10-31T18:17:06;16.33;;;11.87;;
8327;SDS011;4201;48.754;8.864;2022-10-31T18:19:32;17.00;;;9.80;;
8327;SDS011;4201;48.754;8.864;2022-10-31T18:21:58;24.90;;;10.93;;
8327;SDS011;4201;48.754;8.864;2022-10-31T18:24:25;17.10;;;9.23;;
8327;SDS011;4201;48.754;8.864;2022-10-31T18:26:52;18.43;;;11.13;;
8327;SDS011;4201;48.754;8.864;2022-10-31T18:29:19;15.30;;;10.23;;
8327;SDS011;4201;48.754;8.864;2022-10-31T18:31:45;19.27;;;11.50;;
8327;SDS011;4201;48.754;8.864;2022-10-31T18:34:13;21.73;;;12.33;;
8327;SDS011;4201;48.754;8.864;2022-10-31T18:36:40;21.90;;;12.37;;
8327;SDS011;4201;48.754;8.864;2022-10-31T18:39:06;23.60;;;11.00;;
8327;SDS011;4201;48.754;8.864;2022-10-31T18:41:32;20.20;;;11.67;;
8327;SDS011;4201;48.754;8.864;2022-10-31T18:43:59;20.50;;;11.83;;
8327;SDS011;4201;48.754;8.864;2022-10-31T18:46:26;17.30;;;10.50;;
8327;SDS011;4201;48.754;8.864;2022-10-31T18:48:52;18.93;;;8.77;;